createdAt,value
2023-05-01T00:01:07.325Z,10.97
2023-05-01T00:03:37.225Z,10.96
2023-05-01T00:06:07.826Z,10.98
2023-05-01T00:08:37.594Z,10.96
2023-05-01T00:11:08.960Z,11.08
2023-05-01T00:13:38.259Z,11.10
2023-05-01T00:16:11.639Z,11.00
2023-05-01T00:18:41.370Z,11.00
2023-05-01T00:21:10.869Z,11.02
2023-05-01T00:23:40.573Z,11.04
2023-05-01T00:26:10.186Z,11.14
2023-05-01T00:28:41.220Z,11.25
2023-05-01T00:31:11.414Z,11.31
2023-05-01T00:33:40.920Z,11.27
2023-05-01T00:36:11.364Z,11.24
2023-05-01T00:38:40.649Z,11.19
2023-05-01T00:41:09.929Z,11.10
2023-05-01T00:43:39.360Z,10.99
2023-05-01T00:46:10.044Z,10.93
2023-05-01T00:48:39.405Z,10.92
2023-05-01T00:51:09.279Z,10.87
2023-05-01T00:53:38.978Z,10.82
2023-05-01T00:56:09.076Z,10.81
2023-05-01T00:58:38.670Z,10.86
2023-05-01T01:01:09.822Z,10.87
2023-05-01T01:03:39.266Z,10.98
2023-05-01T01:06:16.868Z,10.99
2023-05-01T01:09:14.953Z,11.00
2023-05-01T01:11:53.131Z,10.98
2023-05-01T01:14:28.159Z,10.96
2023-05-01T01:17:11.765Z,10.86
2023-05-01T01:19:47.159Z,10.79
2023-05-01T01:22:21.161Z,10.78
2023-05-01T01:25:20.204Z,10.80
2023-05-01T01:28:12.247Z,10.81
2023-05-01T01:30:43.857Z,10.84
2023-05-01T01:33:25.210Z,10.81
2023-05-01T01:35:59.061Z,10.81
2023-05-01T01:38:40.357Z,10.84
2023-05-01T01:41:28.114Z,10.91
2023-05-01T01:44:16.063Z,10.90
2023-05-01T01:46:45.967Z,10.84
2023-05-01T01:49:20.722Z,10.84
2023-05-01T01:51:50.937Z,10.89
2023-05-01T01:54:24.164Z,10.90
2023-05-01T01:56:53.918Z,10.85
2023-05-01T01:59:24.422Z,10.90
2023-05-01T02:01:55.087Z,10.86
2023-05-01T02:04:24.648Z,10.82
2023-05-01T02:06:56.406Z,10.85
2023-05-01T02:09:27.075Z,10.82
2023-05-01T02:11:56.590Z,10.87
2023-05-01T02:14:28.142Z,10.80
2023-05-01T02:16:58.822Z,10.72
2023-05-01T02:19:29.958Z,10.73
2023-05-01T02:21:59.921Z,10.72
2023-05-01T02:24:30.065Z,10.73
2023-05-01T02:27:11.544Z,10.80
2023-05-01T02:29:40.852Z,10.76
2023-05-01T02:32:10.183Z,10.73
2023-05-01T02:34:39.575Z,10.75
2023-05-01T02:37:11.496Z,10.76
2023-05-01T02:39:42.046Z,10.75
2023-05-01T02:42:13.144Z,10.75
2023-05-01T02:44:45.726Z,10.68
2023-05-01T02:47:15.960Z,10.62
2023-05-01T02:49:48.150Z,10.65
2023-05-01T02:52:18.672Z,10.61
2023-05-01T02:54:49.825Z,10.52
2023-05-01T02:57:20.419Z,10.46
2023-05-01T02:59:49.695Z,10.39
2023-05-01T03:02:18.972Z,10.42
2023-05-01T03:04:48.690Z,10.38
2023-05-01T03:07:18.276Z,10.35
2023-05-01T03:09:47.978Z,10.44
2023-05-01T03:12:17.266Z,10.49
2023-05-01T03:14:46.625Z,10.44
2023-05-01T03:17:16.025Z,10.47
2023-05-01T03:19:45.360Z,10.46
2023-05-01T03:22:15.420Z,10.48
2023-05-01T03:24:46.909Z,10.52
2023-05-01T03:27:16.482Z,10.52
2023-05-01T03:29:47.077Z,10.46
2023-05-01T03:32:18.184Z,10.40
2023-05-01T03:34:48.287Z,10.40
2023-05-01T03:37:18.727Z,10.36
2023-05-01T03:39:48.128Z,10.30
2023-05-01T03:42:35.696Z,10.27
2023-05-01T03:45:07.445Z,10.25
2023-05-01T03:47:37.302Z,10.25
2023-05-01T03:50:08.929Z,10.34
2023-05-01T03:52:39.588Z,10.36
2023-05-01T03:55:09.856Z,10.34
2023-05-01T03:57:47.375Z,10.26
2023-05-01T04:00:18.087Z,10.24
2023-05-01T04:02:48.006Z,10.25
2023-05-01T04:05:19.295Z,10.27
2023-05-01T04:07:50.325Z,10.29
2023-05-01T04:10:19.804Z,10.26
2023-05-01T04:12:51.068Z,10.12
2023-05-01T04:15:22.711Z,10.11
2023-05-01T04:17:52.932Z,10.11
2023-05-01T04:20:22.342Z,10.09
2023-05-01T04:22:52.023Z,10.08
2023-05-01T04:25:21.546Z,10.06
2023-05-01T04:27:52.751Z,10.02
2023-05-01T04:30:22.000Z,10.03
2023-05-01T04:32:51.520Z,10.06
2023-05-01T04:35:21.220Z,10.13
2023-05-01T04:37:50.672Z,10.14
2023-05-01T04:40:19.995Z,10.14
2023-05-01T04:42:49.361Z,10.09
2023-05-01T04:45:18.948Z,10.08
2023-05-01T04:47:48.365Z,10.00
2023-05-01T04:50:17.590Z,10.04
2023-05-01T04:52:48.321Z,9.98
2023-05-01T04:55:18.259Z,10.00
2023-05-01T04:57:49.272Z,10.07
2023-05-01T05:00:19.412Z,10.09
2023-05-01T05:02:50.654Z,10.11
2023-05-01T05:05:19.974Z,10.08
2023-05-01T05:07:51.063Z,10.10
2023-05-01T05:10:34.015Z,10.13
2023-05-01T05:13:17.428Z,10.22
2023-05-01T05:15:48.386Z,10.25
2023-05-01T05:18:19.955Z,10.26
2023-05-01T05:20:49.510Z,10.15
2023-05-01T05:23:19.212Z,10.16
2023-05-01T05:25:48.493Z,10.20
2023-05-01T05:28:18.588Z,10.17
2023-05-01T05:30:49.626Z,10.11
2023-05-01T05:33:20.895Z,10.13
2023-05-01T05:35:50.609Z,10.11
2023-05-01T05:38:21.342Z,10.13
2023-05-01T05:40:54.243Z,10.15
2023-05-01T05:43:26.022Z,10.19
2023-05-01T05:45:59.903Z,10.24
2023-05-01T05:48:29.987Z,10.28
2023-05-01T05:50:59.519Z,10.29
2023-05-01T05:53:29.038Z,10.26
2023-05-01T05:55:58.687Z,10.23
2023-05-01T05:58:28.766Z,10.18
2023-05-01T06:00:58.116Z,10.13
2023-05-01T06:03:27.624Z,10.14
2023-05-01T06:05:59.059Z,10.15
2023-05-01T06:08:28.637Z,10.12
2023-05-01T06:10:58.924Z,10.21
2023-05-01T06:13:29.091Z,10.15
2023-05-01T06:15:58.524Z,10.15
2023-05-01T06:18:27.898Z,10.22
2023-05-01T06:20:57.627Z,10.29
2023-05-01T06:23:27.261Z,10.34
2023-05-01T06:26:04.123Z,10.40
2023-05-01T06:28:33.544Z,10.43
2023-05-01T06:31:04.036Z,10.55
2023-05-01T06:33:34.974Z,10.46
2023-05-01T06:36:07.025Z,10.57
2023-05-01T06:38:36.269Z,10.64
2023-05-01T06:41:07.071Z,10.79
2023-05-01T06:43:36.500Z,10.90
2023-05-01T06:46:05.883Z,11.06
2023-05-01T06:48:36.869Z,11.00
2023-05-01T06:51:06.802Z,11.09
2023-05-01T06:53:36.797Z,11.17
2023-05-01T06:56:06.889Z,11.27
2023-05-01T06:58:36.140Z,11.31
2023-05-01T07:01:05.630Z,11.39
2023-05-01T07:03:35.011Z,11.34
2023-05-01T07:06:04.634Z,11.36
2023-05-01T07:08:33.881Z,11.46
2023-05-01T07:11:03.606Z,11.61
2023-05-01T07:13:33.149Z,11.80
2023-05-01T07:16:03.295Z,11.89
2023-05-01T07:18:32.574Z,11.77
2023-05-01T07:21:02.255Z,12.04
2023-05-01T07:23:31.497Z,12.13
2023-05-01T07:26:01.042Z,12.36
2023-05-01T07:28:30.650Z,12.41
2023-05-01T07:31:01.499Z,12.53
2023-05-01T07:33:30.841Z,12.50
2023-05-01T07:36:00.186Z,12.60
2023-05-01T07:38:29.472Z,12.77
2023-05-01T07:40:59.099Z,12.85
2023-05-01T07:43:28.672Z,12.79
2023-05-01T07:46:00.271Z,12.69
2023-05-01T07:48:30.498Z,12.93
2023-05-01T07:51:04.325Z,13.12
2023-05-01T07:53:33.855Z,13.13
2023-05-01T07:56:08.930Z,13.29
2023-05-01T07:58:38.674Z,13.04
2023-05-01T08:01:09.293Z,12.99
2023-05-01T08:03:40.751Z,13.01
2023-05-01T08:06:10.154Z,13.16
2023-05-01T08:08:39.408Z,13.27
2023-05-01T08:11:09.270Z,13.23
2023-05-01T08:13:38.568Z,13.30
2023-05-01T08:16:08.552Z,13.89
2023-05-01T08:18:38.264Z,13.75
2023-05-01T08:21:07.535Z,13.91
2023-05-01T08:23:36.800Z,14.43
2023-05-01T08:26:06.074Z,14.52
2023-05-01T08:28:38.584Z,14.18
2023-05-01T08:31:07.250Z,14.21
2023-05-01T08:33:36.728Z,14.38
2023-05-01T08:36:06.477Z,14.44
2023-05-01T08:38:35.927Z,14.63
2023-05-01T08:41:05.739Z,14.94
2023-05-01T08:43:34.978Z,15.56
2023-05-01T08:46:06.166Z,15.37
2023-05-01T08:48:37.213Z,15.22
2023-05-01T08:51:07.279Z,15.05
2023-05-01T08:53:37.638Z,14.82
2023-05-01T08:56:11.204Z,15.05
2023-05-01T08:58:41.533Z,14.86
2023-05-01T09:01:16.705Z,15.11
2023-05-01T09:03:46.688Z,15.04
2023-05-01T09:06:16.446Z,15.18
2023-05-01T09:08:45.896Z,14.87
2023-05-01T09:11:15.178Z,14.96
2023-05-01T09:13:44.416Z,14.88
2023-05-01T09:16:13.969Z,14.97
2023-05-01T09:18:43.936Z,15.03
2023-05-01T09:21:13.474Z,15.17
2023-05-01T09:23:43.150Z,15.39
2023-05-01T09:26:12.719Z,15.65
2023-05-01T09:28:46.392Z,15.41
2023-05-01T09:31:23.865Z,15.49
2023-05-01T09:33:56.538Z,15.48
2023-05-01T09:36:26.766Z,15.71
2023-05-01T09:38:56.780Z,15.32
2023-05-01T09:41:26.208Z,15.41
2023-05-01T09:43:57.118Z,15.42
2023-05-01T09:46:27.801Z,15.25
2023-05-01T09:49:03.125Z,15.28
2023-05-01T09:51:33.997Z,14.99
2023-05-01T09:54:05.074Z,15.17
2023-05-01T09:56:35.170Z,14.97
2023-05-01T09:59:19.418Z,15.25
2023-05-01T10:01:50.648Z,15.54
2023-05-01T10:04:23.353Z,15.21
2023-05-01T10:06:52.949Z,15.47
2023-05-01T10:09:29.685Z,15.78
2023-05-01T10:11:59.510Z,16.18
2023-05-01T10:14:30.295Z,16.59
2023-05-01T10:16:59.982Z,16.47
2023-05-01T10:19:29.744Z,16.96
2023-05-01T10:22:00.353Z,16.60
2023-05-01T10:24:29.966Z,16.20
2023-05-01T10:27:00.006Z,16.11
2023-05-01T10:29:30.652Z,15.65
2023-05-01T10:32:00.756Z,15.74
2023-05-01T10:34:30.574Z,15.68
2023-05-01T10:37:01.921Z,15.31
2023-05-01T10:39:35.807Z,15.27
2023-05-01T10:42:14.061Z,15.06
2023-05-01T10:44:46.302Z,14.95
2023-05-01T10:47:35.318Z,15.00
2023-05-01T10:50:07.196Z,14.98
2023-05-01T10:53:16.052Z,14.72
2023-05-01T10:55:50.258Z,14.59
2023-05-01T10:58:41.292Z,14.39
2023-05-01T11:01:36.915Z,14.37
2023-05-01T11:04:23.544Z,14.15
2023-05-01T11:07:14.236Z,13.98
2023-05-01T11:09:51.142Z,13.73
2023-05-01T11:12:49.742Z,13.66
2023-05-01T11:15:34.082Z,13.31
2023-05-01T11:18:06.531Z,13.24
2023-05-01T11:20:45.474Z,13.07
2023-05-01T11:23:19.523Z,13.07
2023-05-01T11:25:49.811Z,13.16
2023-05-01T11:28:21.480Z,12.81
2023-05-01T11:30:51.581Z,12.74
2023-05-01T11:33:26.137Z,12.69
2023-05-01T11:36:02.597Z,12.62
2023-05-01T11:38:31.876Z,12.71
2023-05-01T11:41:03.795Z,12.74
2023-05-01T11:43:33.354Z,12.82
2023-05-01T11:46:02.849Z,12.75
2023-05-01T11:48:33.407Z,12.74
2023-05-01T11:51:04.503Z,12.79
2023-05-01T11:53:33.764Z,12.72
2023-05-01T11:56:06.947Z,12.65
2023-05-01T11:58:36.706Z,12.67
2023-05-01T12:01:07.534Z,12.54
2023-05-01T12:03:43.954Z,12.23
2023-05-01T12:06:14.262Z,12.35
2023-05-01T12:08:45.669Z,12.34
2023-05-01T12:11:15.347Z,12.38
2023-05-01T12:13:46.471Z,12.42
2023-05-01T12:16:16.278Z,12.53
2023-05-01T12:18:45.879Z,12.59
2023-05-01T12:21:19.017Z,12.85
2023-05-01T12:23:51.393Z,13.05
2023-05-01T12:26:26.019Z,13.35
2023-05-01T12:29:02.946Z,13.55
2023-05-01T12:31:33.139Z,13.76
2023-05-01T12:34:06.869Z,13.90
2023-05-01T12:36:37.472Z,13.90
2023-05-01T12:39:12.404Z,14.40
2023-05-01T12:41:44.734Z,15.05
2023-05-01T12:44:25.227Z,15.65
2023-05-01T12:46:57.058Z,15.67
2023-05-01T12:49:27.639Z,16.14
2023-05-01T12:52:00.001Z,17.07
2023-05-01T12:54:40.814Z,17.53
2023-05-01T12:57:12.183Z,18.02
2023-05-01T12:59:42.683Z,18.56
2023-05-01T13:02:15.790Z,18.00
2023-05-01T13:04:46.512Z,18.77
2023-05-01T13:07:18.230Z,18.07
2023-05-01T13:09:55.196Z,18.04
2023-05-01T13:12:26.342Z,18.07
2023-05-01T13:14:55.877Z,17.92
2023-05-01T13:17:30.525Z,17.58
2023-05-01T13:20:04.891Z,18.28
2023-05-01T13:22:35.895Z,18.06
2023-05-01T13:25:20.764Z,18.06
2023-05-01T13:27:51.561Z,18.31
2023-05-01T13:30:34.762Z,19.38
2023-05-01T13:33:07.169Z,19.21
2023-05-01T13:35:38.308Z,18.34
2023-05-01T13:38:09.872Z,18.48
2023-05-01T13:40:42.019Z,18.51
2023-05-01T13:43:15.842Z,19.08
2023-05-01T13:45:47.509Z,20.28
2023-05-01T13:48:18.839Z,20.90
2023-05-01T13:50:48.285Z,21.11
2023-05-01T13:53:19.169Z,20.15
2023-05-01T13:55:49.114Z,20.52
2023-05-01T13:58:18.465Z,20.69
2023-05-01T14:00:47.714Z,20.24
2023-05-01T14:03:18.831Z,20.29
2023-05-01T14:05:49.599Z,20.69
2023-05-01T14:08:23.982Z,20.96
2023-05-01T14:10:53.296Z,20.82
2023-05-01T14:13:22.570Z,20.73
2023-05-01T14:15:51.809Z,20.88
2023-05-01T14:18:22.891Z,21.59
2023-05-01T14:20:52.181Z,21.14
2023-05-01T14:23:23.373Z,21.12
2023-05-01T14:25:52.699Z,21.14
2023-05-01T14:28:22.724Z,20.96
2023-05-01T14:30:52.544Z,19.28
2023-05-01T14:33:22.145Z,18.99
2023-05-01T14:35:53.335Z,18.55
2023-05-01T14:38:23.484Z,17.82
2023-05-01T14:40:52.784Z,17.97
2023-05-01T14:43:22.710Z,17.53
2023-05-01T14:45:52.736Z,17.68
2023-05-01T14:48:24.408Z,17.39
2023-05-01T14:50:56.050Z,17.10
2023-05-01T14:53:25.753Z,16.89
2023-05-01T14:55:54.997Z,16.37
2023-05-01T14:58:24.426Z,16.04
2023-05-01T15:00:53.690Z,16.10
2023-05-01T15:03:23.381Z,15.82
2023-05-01T15:05:53.292Z,15.79
2023-05-01T15:08:22.866Z,15.77
2023-05-01T15:10:55.753Z,15.60
2023-05-01T15:13:25.711Z,15.40
2023-05-01T15:15:56.372Z,15.37
2023-05-01T15:18:26.327Z,15.39
2023-05-01T15:20:57.027Z,15.45
2023-05-01T15:23:27.298Z,15.67
2023-05-01T15:25:56.926Z,16.21
2023-05-01T15:28:26.796Z,17.14
2023-05-01T15:30:56.334Z,17.54
2023-05-01T15:33:25.936Z,17.32
2023-05-01T15:35:55.719Z,17.14
2023-05-01T15:38:26.162Z,17.31
2023-05-01T15:40:56.705Z,17.57
2023-05-01T15:43:25.988Z,18.22
2023-05-01T15:45:57.640Z,17.92
2023-05-01T15:48:27.402Z,16.96
2023-05-01T15:50:56.872Z,16.78
2023-05-01T15:53:26.143Z,16.56
2023-05-01T15:55:59.530Z,16.32
2023-05-01T15:58:28.795Z,16.46
2023-05-01T16:00:58.625Z,17.63
2023-05-01T16:03:28.566Z,18.29
2023-05-01T16:05:59.146Z,17.73
2023-05-01T16:08:28.826Z,18.32
2023-05-01T16:10:58.908Z,18.41
2023-05-01T16:13:28.238Z,18.28
2023-05-01T16:15:57.529Z,18.41
2023-05-01T16:18:27.122Z,18.96
2023-05-01T16:20:58.222Z,18.89
2023-05-01T16:23:27.895Z,17.92
2023-05-01T16:25:57.400Z,17.62
2023-05-01T16:28:26.687Z,17.55
2023-05-01T16:30:56.138Z,17.66
2023-05-01T16:33:25.538Z,17.37
2023-05-01T16:35:55.039Z,17.52
2023-05-01T16:38:24.295Z,17.61
2023-05-01T16:40:54.135Z,16.95
2023-05-01T16:43:23.414Z,16.65
2023-05-01T16:45:54.657Z,16.79
2023-05-01T16:48:25.134Z,17.05
2023-05-01T16:50:54.611Z,17.98
2023-05-01T16:53:24.436Z,18.05
2023-05-01T16:55:53.726Z,17.47
2023-05-01T16:58:23.007Z,17.32
2023-05-01T17:00:52.674Z,17.57
2023-05-01T17:03:22.719Z,17.49
2023-05-01T17:05:52.211Z,17.42
2023-05-01T17:08:21.829Z,17.73
2023-05-01T17:10:51.290Z,17.63
2023-05-01T17:13:21.289Z,17.58
2023-05-01T17:15:52.563Z,17.36
2023-05-01T17:18:22.108Z,16.63
2023-05-01T17:20:52.251Z,16.28
2023-05-01T17:23:23.451Z,16.01
2023-05-01T17:25:52.738Z,15.78
2023-05-01T17:28:22.409Z,15.85
2023-05-01T17:30:52.675Z,15.60
2023-05-01T17:33:22.272Z,15.17
2023-05-01T17:35:54.334Z,14.99
2023-05-01T17:38:23.626Z,15.08
2023-05-01T17:40:53.265Z,14.97
2023-05-01T17:43:22.615Z,14.77
2023-05-01T17:45:51.992Z,14.81
2023-05-01T17:48:21.720Z,14.65
2023-05-01T17:50:54.124Z,14.55
2023-05-01T17:53:23.547Z,14.40
2023-05-01T17:55:52.942Z,14.32
2023-05-01T17:58:22.872Z,14.11
2023-05-01T18:00:52.196Z,14.03
2023-05-01T18:03:21.757Z,13.78
2023-05-01T18:05:51.136Z,13.77
2023-05-01T18:08:20.666Z,13.66
2023-05-01T18:10:50.022Z,13.57
2023-05-01T18:13:20.296Z,13.48
2023-05-01T18:15:51.906Z,13.42
2023-05-01T18:18:20.552Z,13.44
2023-05-01T18:20:49.909Z,13.33
2023-05-01T18:23:19.800Z,13.23
2023-05-01T18:25:49.042Z,13.17
2023-05-01T18:28:19.165Z,13.10
2023-05-01T18:30:48.423Z,13.07
2023-05-01T18:33:18.208Z,12.99
2023-05-01T18:35:47.994Z,12.88
2023-05-01T18:38:17.387Z,12.94
2023-05-01T18:40:47.682Z,12.92
2023-05-01T18:43:16.949Z,12.82
2023-05-01T18:45:46.254Z,12.67
2023-05-01T18:48:15.781Z,12.44
2023-05-01T18:50:51.422Z,12.46
2023-05-01T18:53:17.410Z,12.53
2023-05-01T18:55:46.678Z,12.41
2023-05-01T18:58:15.959Z,12.26
2023-05-01T19:00:45.302Z,12.04
2023-05-01T19:03:14.561Z,11.88
2023-05-01T19:05:44.057Z,11.79
2023-05-01T19:08:13.720Z,11.70
2023-05-01T19:10:43.059Z,11.60
2023-05-01T19:13:12.835Z,11.42
2023-05-01T19:15:43.731Z,11.37
2023-05-01T19:18:13.376Z,11.35
2023-05-01T19:20:45.874Z,11.30
2023-05-01T19:23:14.720Z,11.14
2023-05-01T19:25:43.964Z,11.05
2023-05-01T19:28:13.383Z,11.27
2023-05-01T19:30:42.797Z,11.35
2023-05-01T19:33:12.290Z,11.27
2023-05-01T19:35:41.826Z,11.20
2023-05-01T19:38:11.437Z,11.21
2023-05-01T19:40:42.371Z,11.11
2023-05-01T19:43:13.325Z,10.95
2023-05-01T19:45:43.264Z,10.84
2023-05-01T19:48:12.834Z,10.86
2023-05-01T19:50:44.007Z,10.85
2023-05-01T19:53:13.537Z,10.80
2023-05-01T19:55:44.179Z,10.82
2023-05-01T19:58:15.132Z,10.84
2023-05-01T20:00:44.568Z,10.86
2023-05-01T20:03:15.634Z,10.76
2023-05-01T20:05:45.269Z,10.72
2023-05-01T20:08:14.781Z,10.65
2023-05-01T20:10:44.375Z,10.55
2023-05-01T20:13:13.760Z,10.57
2023-05-01T20:15:43.424Z,10.59
2023-05-01T20:18:14.074Z,10.58
2023-05-01T20:20:43.495Z,10.56
2023-05-01T20:23:18.981Z,10.48
2023-05-01T20:25:48.830Z,10.53
2023-05-01T20:28:18.988Z,10.54
2023-05-01T20:30:49.652Z,10.59
2023-05-01T20:33:19.354Z,10.60
2023-05-01T20:35:48.956Z,10.69
2023-05-01T20:38:18.417Z,10.84
2023-05-01T20:40:48.203Z,10.88
2023-05-01T20:43:17.520Z,10.89
2023-05-01T20:45:47.022Z,10.94
2023-05-01T20:48:16.511Z,10.93
2023-05-01T20:50:47.627Z,10.95
2023-05-01T20:53:16.999Z,10.97
2023-05-01T20:55:47.189Z,10.97
2023-05-01T20:58:16.837Z,11.00
2023-05-01T21:00:46.742Z,11.04
2023-05-01T21:03:17.005Z,11.02
2023-05-01T21:05:46.577Z,11.05
2023-05-01T21:08:15.969Z,10.99
2023-05-01T21:10:45.608Z,11.06
2023-05-01T21:13:15.292Z,11.03
2023-05-01T21:15:44.734Z,11.02
2023-05-01T21:18:17.332Z,11.05
2023-05-01T21:20:48.250Z,11.00
2023-05-01T21:23:18.968Z,11.01
2023-05-01T21:25:48.339Z,11.00
2023-05-01T21:28:17.746Z,11.02
2023-05-01T21:30:49.820Z,11.01
2023-05-01T21:33:19.394Z,11.06
2023-05-01T21:35:49.775Z,11.03
2023-05-01T21:38:19.078Z,10.99
2023-05-01T21:40:48.448Z,11.02
2023-05-01T21:43:20.183Z,11.02
2023-05-01T21:45:49.497Z,10.99
2023-05-01T21:48:20.612Z,10.96
2023-05-01T21:50:51.325Z,10.95
2023-05-01T21:53:20.635Z,10.94
2023-05-01T21:55:50.073Z,10.93
2023-05-01T21:58:19.429Z,10.94
2023-05-01T22:00:48.985Z,10.98
2023-05-01T22:03:19.686Z,10.95
2023-05-01T22:05:49.764Z,10.93
2023-05-01T22:08:20.188Z,10.93
2023-05-01T22:10:49.469Z,10.90
2023-05-01T22:13:19.039Z,10.82
2023-05-01T22:15:49.148Z,10.82
2023-05-01T22:18:19.768Z,10.75
2023-05-01T22:20:49.487Z,10.69
2023-05-01T22:23:18.939Z,10.57
2023-05-01T22:25:48.217Z,10.47
2023-05-01T22:28:18.123Z,10.40
2023-05-01T22:30:48.096Z,10.33
2023-05-01T22:33:17.659Z,10.28
2023-05-01T22:35:47.019Z,10.32
2023-05-01T22:38:16.456Z,10.34
2023-05-01T22:40:45.676Z,10.25
2023-05-01T22:43:15.437Z,10.20
2023-05-01T22:45:44.683Z,10.17
2023-05-01T22:48:14.055Z,10.06
2023-05-01T22:50:43.637Z,9.98
2023-05-01T22:53:13.281Z,9.90
2023-05-01T22:55:42.745Z,9.93
2023-05-01T22:58:12.394Z,9.98
2023-05-01T23:00:41.950Z,9.79
2023-05-01T23:03:12.309Z,9.79
2023-05-01T23:05:41.964Z,9.71
2023-05-01T23:08:12.089Z,9.56
2023-05-01T23:10:42.691Z,9.52
2023-05-01T23:13:23.776Z,9.49
2023-05-01T23:15:53.364Z,9.43
2023-05-01T23:18:32.134Z,9.48
2023-05-01T23:21:02.004Z,9.59
2023-05-01T23:23:32.231Z,9.71
2023-05-01T23:26:02.431Z,9.77
2023-05-01T23:28:31.737Z,9.86
2023-05-01T23:31:03.160Z,9.83
2023-05-01T23:33:34.975Z,9.70
2023-05-01T23:36:05.336Z,9.71
2023-05-01T23:38:35.040Z,9.68
2023-05-01T23:41:05.702Z,9.69
2023-05-01T23:43:36.112Z,9.65
2023-05-01T23:46:07.759Z,9.63
2023-05-01T23:48:37.721Z,9.68
2023-05-01T23:51:07.434Z,9.73
2023-05-01T23:53:36.715Z,9.72
2023-05-01T23:56:07.738Z,9.73
2023-05-01T23:58:37.323Z,9.75
